sensor_id;sensor_type;location;lat;lon;timestamp;P1;durP1;ratioP1;P2;durP2;ratioP2
23668;SDS011;12011;47.422;15.018;2022-11-15T00:02:10;14.87;;;14.50;;
23668;SDS011;12011;47.422;15.018;2022-11-15T00:05:20;13.40;;;13.21;;
23668;SDS011;12011;47.422;15.018;2022-11-15T00:08:37;12.62;;;12.38;;
23668;SDS011;12011;47.422;15.018;2022-11-15T00:11:47;11.82;;;11.64;;
23668;SDS011;12011;47.422;15.018;2022-11-15T00:14:55;10.83;;;10.66;;
23668;SDS011;12011;47.422;15.018;2022-11-15T00:18:05;12.21;;;11.97;;
23668;SDS011;12011;47.422;15.018;2022-11-15T00:21:20;13.21;;;12.91;;
23668;SDS011;12011;47.422;15.018;2022-11-15T00:24:31;12.87;;;12.50;;
23668;SDS011;12011;47.422;15.018;2022-11-15T00:27:39;12.09;;;11.86;;
23668;SDS011;12011;47.422;15.018;2022-11-15T00:30:51;10.75;;;10.62;;
23668;SDS011;12011;47.422;15.018;2022-11-15T00:33:59;11.44;;;11.31;;
23668;SDS011;12011;47.422;15.018;2022-11-15T00:37:10;11.39;;;11.23;;
23668;SDS011;12011;47.422;15.018;2022-11-15T00:40:21;11.70;;;11.46;;
23668;SDS011;12011;47.422;15.018;2022-11-15T00:43:30;10.41;;;10.28;;
23668;SDS011;12011;47.422;15.018;2022-11-15T00:46:39;10.45;;;10.32;;
23668;SDS011;12011;47.422;15.018;2022-11-15T00:49:47;9.54;;;9.32;;
23668;SDS011;12011;47.422;15.018;2022-11-15T00:52:55;9.32;;;9.25;;
23668;SDS011;12011;47.422;15.018;2022-11-15T00:56:08;8.82;;;8.68;;
23668;SDS011;12011;47.422;15.018;2022-11-15T00:59:16;8.99;;;8.80;;
23668;SDS011;12011;47.422;15.018;2022-11-15T01:02:25;8.47;;;8.32;;
23668;SDS011;12011;47.422;15.018;2022-11-15T01:05:36;8.17;;;8.08;;
23668;SDS011;12011;47.422;15.018;2022-11-15T01:08:45;8.20;;;8.11;;
23668;SDS011;12011;47.422;15.018;2022-11-15T01:11:56;7.91;;;7.79;;
23668;SDS011;12011;47.422;15.018;2022-11-15T01:15:07;8.11;;;8.02;;
23668;SDS011;12011;47.422;15.018;2022-11-15T01:18:18;7.51;;;7.40;;
23668;SDS011;12011;47.422;15.018;2022-11-15T01:21:28;7.67;;;7.57;;
23668;SDS011;12011;47.422;15.018;2022-11-15T01:24:37;7.95;;;7.81;;
23668;SDS011;12011;47.422;15.018;2022-11-15T01:27:48;8.39;;;8.28;;
23668;SDS011;12011;47.422;15.018;2022-11-15T01:30:58;8.36;;;8.28;;
23668;SDS011;12011;47.422;15.018;2022-11-15T01:34:18;8.56;;;8.47;;
23668;SDS011;12011;47.422;15.018;2022-11-15T01:37:26;7.93;;;7.73;;
23668;SDS011;12011;47.422;15.018;2022-11-15T01:40:34;8.33;;;8.24;;
23668;SDS011;12011;47.422;15.018;2022-11-15T01:43:46;8.48;;;8.40;;
23668;SDS011;12011;47.422;15.018;2022-11-15T01:46:59;8.84;;;8.69;;
23668;SDS011;12011;47.422;15.018;2022-11-15T01:50:15;8.08;;;7.99;;
23668;SDS011;12011;47.422;15.018;2022-11-15T01:53:30;8.22;;;8.16;;
23668;SDS011;12011;47.422;15.018;2022-11-15T01:56:48;7.76;;;7.67;;
23668;SDS011;12011;47.422;15.018;2022-11-15T02:00:07;8.43;;;8.35;;
23668;SDS011;12011;47.422;15.018;2022-11-15T02:03:20;8.72;;;8.61;;
23668;SDS011;12011;47.422;15.018;2022-11-15T02:06:38;9.81;;;9.73;;
23668;SDS011;12011;47.422;15.018;2022-11-15T02:09:48;9.19;;;9.03;;
23668;SDS011;12011;47.422;15.018;2022-11-15T02:12:59;9.23;;;9.03;;
23668;SDS011;12011;47.422;15.018;2022-11-15T02:16:14;8.59;;;8.45;;
23668;SDS011;12011;47.422;15.018;2022-11-15T02:19:45;8.34;;;8.25;;
23668;SDS011;12011;47.422;15.018;2022-11-15T02:23:41;7.63;;;7.49;;
23668;SDS011;12011;47.422;15.018;2022-11-15T02:31:36;7.65;;;7.59;;
23668;SDS011;12011;47.422;15.018;2022-11-15T02:34:57;7.93;;;7.77;;
23668;SDS011;12011;47.422;15.018;2022-11-15T02:38:21;8.10;;;7.94;;
23668;SDS011;12011;47.422;15.018;2022-11-15T02:41:40;7.99;;;7.83;;
23668;SDS011;12011;47.422;15.018;2022-11-15T02:44:54;7.94;;;7.80;;
23668;SDS011;12011;47.422;15.018;2022-11-15T02:48:12;7.56;;;7.48;;
23668;SDS011;12011;47.422;15.018;2022-11-15T02:51:23;7.17;;;7.08;;
23668;SDS011;12011;47.422;15.018;2022-11-15T02:54:34;7.61;;;7.51;;
23668;SDS011;12011;47.422;15.018;2022-11-15T02:57:44;7.17;;;7.10;;
23668;SDS011;12011;47.422;15.018;2022-11-15T03:01:07;7.75;;;7.66;;
23668;SDS011;12011;47.422;15.018;2022-11-15T03:04:38;7.55;;;7.47;;
23668;SDS011;12011;47.422;15.018;2022-11-15T03:08:00;7.20;;;7.14;;
23668;SDS011;12011;47.422;15.018;2022-11-15T03:11:15;7.05;;;6.95;;
23668;SDS011;12011;47.422;15.018;2022-11-15T03:14:28;7.67;;;7.61;;
23668;SDS011;12011;47.422;15.018;2022-11-15T03:17:43;7.77;;;7.72;;
23668;SDS011;12011;47.422;15.018;2022-11-15T03:21:05;7.18;;;7.09;;
23668;SDS011;12011;47.422;15.018;2022-11-15T03:24:19;6.41;;;6.37;;
23668;SDS011;12011;47.422;15.018;2022-11-15T03:27:33;6.57;;;6.50;;
23668;SDS011;12011;47.422;15.018;2022-11-15T03:30:52;6.73;;;6.63;;
23668;SDS011;12011;47.422;15.018;2022-11-15T03:34:04;6.55;;;6.51;;
23668;SDS011;12011;47.422;15.018;2022-11-15T03:37:24;6.12;;;6.06;;
23668;SDS011;12011;47.422;15.018;2022-11-15T03:40:42;5.76;;;5.71;;
23668;SDS011;12011;47.422;15.018;2022-11-15T03:43:56;5.56;;;5.52;;
23668;SDS011;12011;47.422;15.018;2022-11-15T03:47:20;6.63;;;6.51;;
23668;SDS011;12011;47.422;15.018;2022-11-15T03:50:37;6.04;;;5.95;;
23668;SDS011;12011;47.422;15.018;2022-11-15T03:53:51;6.22;;;6.08;;
23668;SDS011;12011;47.422;15.018;2022-11-15T03:56:59;6.11;;;5.99;;
23668;SDS011;12011;47.422;15.018;2022-11-15T04:00:08;5.80;;;5.71;;
23668;SDS011;12011;47.422;15.018;2022-11-15T04:03:19;5.88;;;5.80;;
23668;SDS011;12011;47.422;15.018;2022-11-15T04:06:29;6.06;;;5.99;;
23668;SDS011;12011;47.422;15.018;2022-11-15T04:09:40;5.66;;;5.61;;
23668;SDS011;12011;47.422;15.018;2022-11-15T04:13:01;5.13;;;5.07;;
23668;SDS011;12011;47.422;15.018;2022-11-15T04:16:10;6.20;;;6.13;;
23668;SDS011;12011;47.422;15.018;2022-11-15T04:19:18;6.40;;;6.36;;
23668;SDS011;12011;47.422;15.018;2022-11-15T04:22:39;6.64;;;6.56;;
23668;SDS011;12011;47.422;15.018;2022-11-15T04:26:06;6.39;;;6.34;;
23668;SDS011;12011;47.422;15.018;2022-11-15T04:29:18;6.71;;;6.64;;
23668;SDS011;12011;47.422;15.018;2022-11-15T04:32:42;5.52;;;5.45;;
23668;SDS011;12011;47.422;15.018;2022-11-15T04:35:50;5.97;;;5.90;;
23668;SDS011;12011;47.422;15.018;2022-11-15T04:39:11;6.55;;;6.43;;
23668;SDS011;12011;47.422;15.018;2022-11-15T04:42:22;6.88;;;6.80;;
23668;SDS011;12011;47.422;15.018;2022-11-15T04:45:35;6.96;;;6.82;;
23668;SDS011;12011;47.422;15.018;2022-11-15T04:48:43;6.99;;;6.87;;
23668;SDS011;12011;47.422;15.018;2022-11-15T04:51:52;6.67;;;6.60;;
23668;SDS011;12011;47.422;15.018;2022-11-15T04:55:03;7.31;;;7.18;;
23668;SDS011;12011;47.422;15.018;2022-11-15T04:58:14;6.44;;;6.27;;
23668;SDS011;12011;47.422;15.018;2022-11-15T05:01:23;6.93;;;6.76;;
23668;SDS011;12011;47.422;15.018;2022-11-15T05:04:32;7.43;;;7.22;;
23668;SDS011;12011;47.422;15.018;2022-11-15T05:07:37;7.45;;;7.36;;
23668;SDS011;12011;47.422;15.018;2022-11-15T05:10:49;7.45;;;7.39;;
23668;SDS011;12011;47.422;15.018;2022-11-15T05:14:00;7.29;;;7.22;;
23668;SDS011;12011;47.422;15.018;2022-11-15T05:17:10;6.49;;;6.43;;
23668;SDS011;12011;47.422;15.018;2022-11-15T05:20:18;6.66;;;6.59;;
23668;SDS011;12011;47.422;15.018;2022-11-15T05:23:27;6.45;;;6.38;;
23668;SDS011;12011;47.422;15.018;2022-11-15T05:26:37;6.82;;;6.72;;
23668;SDS011;12011;47.422;15.018;2022-11-15T05:29:48;5.92;;;5.88;;
23668;SDS011;12011;47.422;15.018;2022-11-15T05:32:57;5.76;;;5.70;;
23668;SDS011;12011;47.422;15.018;2022-11-15T05:36:06;5.20;;;5.16;;
23668;SDS011;12011;47.422;15.018;2022-11-15T05:39:22;6.41;;;6.33;;
23668;SDS011;12011;47.422;15.018;2022-11-15T05:42:30;7.51;;;7.35;;
23668;SDS011;12011;47.422;15.018;2022-11-15T05:45:41;8.15;;;7.98;;
23668;SDS011;12011;47.422;15.018;2022-11-15T05:48:51;9.28;;;9.08;;
23668;SDS011;12011;47.422;15.018;2022-11-15T05:52:02;8.72;;;8.57;;
23668;SDS011;12011;47.422;15.018;2022-11-15T05:55:14;8.14;;;7.97;;
23668;SDS011;12011;47.422;15.018;2022-11-15T05:58:23;7.73;;;7.65;;
23668;SDS011;12011;47.422;15.018;2022-11-15T06:01:34;7.47;;;7.33;;
23668;SDS011;12011;47.422;15.018;2022-11-15T06:04:48;7.96;;;7.84;;
23668;SDS011;12011;47.422;15.018;2022-11-15T06:07:57;15.20;;;14.62;;
23668;SDS011;12011;47.422;15.018;2022-11-15T06:11:09;8.72;;;8.49;;
23668;SDS011;12011;47.422;15.018;2022-11-15T06:14:17;7.19;;;7.10;;
23668;SDS011;12011;47.422;15.018;2022-11-15T06:17:32;6.74;;;6.66;;
23668;SDS011;12011;47.422;15.018;2022-11-15T06:20:40;7.08;;;7.01;;
23668;SDS011;12011;47.422;15.018;2022-11-15T06:23:49;6.92;;;6.84;;
23668;SDS011;12011;47.422;15.018;2022-11-15T06:26:57;6.97;;;6.88;;
23668;SDS011;12011;47.422;15.018;2022-11-15T06:30:07;7.14;;;7.04;;
23668;SDS011;12011;47.422;15.018;2022-11-15T06:33:20;7.83;;;7.72;;
23668;SDS011;12011;47.422;15.018;2022-11-15T06:36:30;8.46;;;8.23;;
23668;SDS011;12011;47.422;15.018;2022-11-15T06:39:41;8.20;;;8.07;;
23668;SDS011;12011;47.422;15.018;2022-11-15T06:42:56;8.25;;;8.17;;
23668;SDS011;12011;47.422;15.018;2022-11-15T06:46:09;9.28;;;9.10;;
23668;SDS011;12011;47.422;15.018;2022-11-15T06:49:20;9.31;;;9.13;;
23668;SDS011;12011;47.422;15.018;2022-11-15T06:52:28;10.02;;;9.80;;
23668;SDS011;12011;47.422;15.018;2022-11-15T06:55:38;10.30;;;10.12;;
23668;SDS011;12011;47.422;15.018;2022-11-15T06:58:50;10.55;;;10.42;;
23668;SDS011;12011;47.422;15.018;2022-11-15T07:01:58;11.22;;;11.07;;
23668;SDS011;12011;47.422;15.018;2022-11-15T07:05:10;12.66;;;12.35;;
23668;SDS011;12011;47.422;15.018;2022-11-15T07:08:18;13.72;;;13.42;;
23668;SDS011;12011;47.422;15.018;2022-11-15T07:11:29;12.27;;;11.99;;
23668;SDS011;12011;47.422;15.018;2022-11-15T07:14:38;8.74;;;8.57;;
23668;SDS011;12011;47.422;15.018;2022-11-15T07:17:50;10.42;;;10.20;;
23668;SDS011;12011;47.422;15.018;2022-11-15T07:21:03;9.10;;;8.91;;
23668;SDS011;12011;47.422;15.018;2022-11-15T07:24:15;8.57;;;8.45;;
23668;SDS011;12011;47.422;15.018;2022-11-15T07:27:23;13.47;;;13.30;;
23668;SDS011;12011;47.422;15.018;2022-11-15T07:30:36;11.88;;;11.72;;
23668;SDS011;12011;47.422;15.018;2022-11-15T07:33:52;11.46;;;11.38;;
23668;SDS011;12011;47.422;15.018;2022-11-15T07:37:11;13.49;;;13.32;;
23668;SDS011;12011;47.422;15.018;2022-11-15T07:40:21;13.72;;;13.51;;
23668;SDS011;12011;47.422;15.018;2022-11-15T07:43:33;11.46;;;11.26;;
23668;SDS011;12011;47.422;15.018;2022-11-15T07:46:41;10.79;;;10.60;;
23668;SDS011;12011;47.422;15.018;2022-11-15T07:49:51;11.24;;;11.07;;
23668;SDS011;12011;47.422;15.018;2022-11-15T07:53:04;11.90;;;11.72;;
23668;SDS011;12011;47.422;15.018;2022-11-15T07:56:14;11.44;;;11.27;;
23668;SDS011;12011;47.422;15.018;2022-11-15T07:59:24;11.46;;;11.32;;
23668;SDS011;12011;47.422;15.018;2022-11-15T08:02:39;14.13;;;13.88;;
23668;SDS011;12011;47.422;15.018;2022-11-15T08:05:50;13.43;;;13.21;;
23668;SDS011;12011;47.422;15.018;2022-11-15T08:09:02;11.91;;;11.59;;
23668;SDS011;12011;47.422;15.018;2022-11-15T08:12:11;10.19;;;10.00;;
23668;SDS011;12011;47.422;15.018;2022-11-15T08:15:20;10.28;;;10.17;;
23668;SDS011;12011;47.422;15.018;2022-11-15T08:18:29;9.81;;;9.65;;
23668;SDS011;12011;47.422;15.018;2022-11-15T08:21:42;7.92;;;7.83;;
23668;SDS011;12011;47.422;15.018;2022-11-15T08:24:56;7.13;;;7.03;;
23668;SDS011;12011;47.422;15.018;2022-11-15T08:28:09;7.02;;;6.89;;
23668;SDS011;12011;47.422;15.018;2022-11-15T08:31:21;6.85;;;6.80;;
23668;SDS011;12011;47.422;15.018;2022-11-15T08:34:31;7.81;;;7.78;;
23668;SDS011;12011;47.422;15.018;2022-11-15T08:37:39;7.17;;;7.14;;
23668;SDS011;12011;47.422;15.018;2022-11-15T08:40:52;6.84;;;6.76;;
23668;SDS011;12011;47.422;15.018;2022-11-15T08:44:09;7.04;;;6.94;;
23668;SDS011;12011;47.422;15.018;2022-11-15T08:47:19;7.57;;;7.52;;
23668;SDS011;12011;47.422;15.018;2022-11-15T08:50:31;8.65;;;8.47;;
23668;SDS011;12011;47.422;15.018;2022-11-15T08:53:40;8.81;;;8.67;;
23668;SDS011;12011;47.422;15.018;2022-11-15T08:56:54;8.69;;;8.59;;
23668;SDS011;12011;47.422;15.018;2022-11-15T09:00:05;8.61;;;8.51;;
23668;SDS011;12011;47.422;15.018;2022-11-15T09:03:17;8.90;;;8.78;;
23668;SDS011;12011;47.422;15.018;2022-11-15T09:06:26;9.34;;;9.18;;
23668;SDS011;12011;47.422;15.018;2022-11-15T09:09:34;9.12;;;8.97;;
23668;SDS011;12011;47.422;15.018;2022-11-15T09:12:46;8.40;;;8.28;;
23668;SDS011;12011;47.422;15.018;2022-11-15T09:15:56;9.61;;;9.41;;
23668;SDS011;12011;47.422;15.018;2022-11-15T09:19:06;10.31;;;10.09;;
23668;SDS011;12011;47.422;15.018;2022-11-15T09:22:15;10.61;;;10.35;;
23668;SDS011;12011;47.422;15.018;2022-11-15T09:25:23;10.37;;;10.23;;
23668;SDS011;12011;47.422;15.018;2022-11-15T09:28:35;10.47;;;10.20;;
23668;SDS011;12011;47.422;15.018;2022-11-15T09:31:46;10.22;;;9.95;;
23668;SDS011;12011;47.422;15.018;2022-11-15T09:34:54;10.73;;;10.35;;
23668;SDS011;12011;47.422;15.018;2022-11-15T09:38:06;10.44;;;10.19;;
23668;SDS011;12011;47.422;15.018;2022-11-15T09:41:29;10.52;;;10.27;;
23668;SDS011;12011;47.422;15.018;2022-11-15T09:45:09;10.34;;;10.08;;
23668;SDS011;12011;47.422;15.018;2022-11-15T09:48:35;10.26;;;10.04;;
23668;SDS011;12011;47.422;15.018;2022-11-15T09:51:50;9.45;;;9.27;;
23668;SDS011;12011;47.422;15.018;2022-11-15T09:54:48;9.91;;;9.72;;
23668;SDS011;12011;47.422;15.018;2022-11-15T09:57:41;9.72;;;9.47;;
23668;SDS011;12011;47.422;15.018;2022-11-15T10:00:44;9.75;;;9.52;;
23668;SDS011;12011;47.422;15.018;2022-11-15T10:03:40;10.18;;;9.94;;
23668;SDS011;12011;47.422;15.018;2022-11-15T10:06:36;9.14;;;8.98;;
23668;SDS011;12011;47.422;15.018;2022-11-15T10:09:39;9.19;;;9.02;;
23668;SDS011;12011;47.422;15.018;2022-11-15T10:12:45;9.31;;;9.01;;
23668;SDS011;12011;47.422;15.018;2022-11-15T10:15:46;9.45;;;9.29;;
23668;SDS011;12011;47.422;15.018;2022-11-15T10:18:41;9.38;;;9.24;;
23668;SDS011;12011;47.422;15.018;2022-11-15T10:21:49;8.39;;;8.25;;
23668;SDS011;12011;47.422;15.018;2022-11-15T10:25:10;6.80;;;6.72;;
23668;SDS011;12011;47.422;15.018;2022-11-15T10:28:10;6.79;;;6.69;;
23668;SDS011;12011;47.422;15.018;2022-11-15T10:31:20;5.72;;;5.66;;
23668;SDS011;12011;47.422;15.018;2022-11-15T10:34:14;5.40;;;5.36;;
23668;SDS011;12011;47.422;15.018;2022-11-15T10:37:07;5.42;;;5.41;;
23668;SDS011;12011;47.422;15.018;2022-11-15T10:40:03;5.15;;;5.13;;
23668;SDS011;12011;47.422;15.018;2022-11-15T10:43:03;5.57;;;5.56;;
23668;SDS011;12011;47.422;15.018;2022-11-15T10:46:16;5.76;;;5.73;;
23668;SDS011;12011;47.422;15.018;2022-11-15T10:49:12;5.84;;;5.81;;
23668;SDS011;12011;47.422;15.018;2022-11-15T10:52:12;5.88;;;5.86;;
23668;SDS011;12011;47.422;15.018;2022-11-15T10:55:20;5.65;;;5.62;;
23668;SDS011;12011;47.422;15.018;2022-11-15T10:58:19;5.50;;;5.50;;
23668;SDS011;12011;47.422;15.018;2022-11-15T11:01:25;5.32;;;5.30;;
23668;SDS011;12011;47.422;15.018;2022-11-15T11:04:17;5.16;;;5.14;;
23668;SDS011;12011;47.422;15.018;2022-11-15T11:07:08;4.75;;;4.72;;
23668;SDS011;12011;47.422;15.018;2022-11-15T11:10:17;4.83;;;4.79;;
23668;SDS011;12011;47.422;15.018;2022-11-15T11:13:13;4.62;;;4.61;;
23668;SDS011;12011;47.422;15.018;2022-11-15T11:16:19;4.16;;;4.15;;
23668;SDS011;12011;47.422;15.018;2022-11-15T11:19:39;4.39;;;4.39;;
23668;SDS011;12011;47.422;15.018;2022-11-15T11:22:54;4.43;;;4.43;;
23668;SDS011;12011;47.422;15.018;2022-11-15T11:26:10;4.05;;;4.04;;
23668;SDS011;12011;47.422;15.018;2022-11-15T11:29:26;4.54;;;4.54;;
23668;SDS011;12011;47.422;15.018;2022-11-15T11:36:08;4.61;;;4.61;;
23668;SDS011;12011;47.422;15.018;2022-11-15T11:39:16;4.45;;;4.45;;
23668;SDS011;12011;47.422;15.018;2022-11-15T11:42:23;4.24;;;4.24;;
23668;SDS011;12011;47.422;15.018;2022-11-15T11:45:40;4.25;;;4.25;;
23668;SDS011;12011;47.422;15.018;2022-11-15T11:48:56;3.87;;;3.87;;
23668;SDS011;12011;47.422;15.018;2022-11-15T11:51:55;3.79;;;3.79;;
23668;SDS011;12011;47.422;15.018;2022-11-15T11:54:58;3.72;;;3.71;;
23668;SDS011;12011;47.422;15.018;2022-11-15T11:58:03;3.87;;;3.86;;
23668;SDS011;12011;47.422;15.018;2022-11-15T12:01:03;4.06;;;4.06;;
23668;SDS011;12011;47.422;15.018;2022-11-15T12:04:08;3.86;;;3.85;;
23668;SDS011;12011;47.422;15.018;2022-11-15T12:07:07;3.42;;;3.42;;
23668;SDS011;12011;47.422;15.018;2022-11-15T12:10:12;3.40;;;3.39;;
23668;SDS011;12011;47.422;15.018;2022-11-15T12:13:11;3.49;;;3.48;;
23668;SDS011;12011;47.422;15.018;2022-11-15T12:16:11;3.69;;;3.67;;
23668;SDS011;12011;47.422;15.018;2022-11-15T12:19:13;3.44;;;3.44;;
23668;SDS011;12011;47.422;15.018;2022-11-15T12:22:04;3.40;;;3.40;;
23668;SDS011;12011;47.422;15.018;2022-11-15T12:25:04;3.19;;;3.18;;
23668;SDS011;12011;47.422;15.018;2022-11-15T12:28:08;3.08;;;3.07;;
23668;SDS011;12011;47.422;15.018;2022-11-15T12:31:10;2.83;;;2.83;;
23668;SDS011;12011;47.422;15.018;2022-11-15T12:34:16;2.96;;;2.96;;
23668;SDS011;12011;47.422;15.018;2022-11-15T12:44:09;2.68;;;2.68;;
23668;SDS011;12011;47.422;15.018;2022-11-15T12:47:03;2.82;;;2.82;;
23668;SDS011;12011;47.422;15.018;2022-11-15T12:50:14;2.60;;;2.60;;
23668;SDS011;12011;47.422;15.018;2022-11-15T12:56:21;2.57;;;2.57;;
23668;SDS011;12011;47.422;15.018;2022-11-15T12:59:38;2.53;;;2.53;;
23668;SDS011;12011;47.422;15.018;2022-11-15T13:02:38;2.81;;;2.81;;
23668;SDS011;12011;47.422;15.018;2022-11-15T13:12:53;2.93;;;2.91;;
23668;SDS011;12011;47.422;15.018;2022-11-15T13:15:55;2.76;;;2.74;;
23668;SDS011;12011;47.422;15.018;2022-11-15T13:18:52;2.83;;;2.83;;
23668;SDS011;12011;47.422;15.018;2022-11-15T13:21:47;2.80;;;2.80;;
23668;SDS011;12011;47.422;15.018;2022-11-15T13:24:53;2.59;;;2.59;;
23668;SDS011;12011;47.422;15.018;2022-11-15T13:27:43;2.71;;;2.71;;
23668;SDS011;12011;47.422;15.018;2022-11-15T13:30:35;2.69;;;2.69;;
23668;SDS011;12011;47.422;15.018;2022-11-15T13:33:28;2.60;;;2.60;;
23668;SDS011;12011;47.422;15.018;2022-11-15T13:36:23;2.82;;;2.80;;
23668;SDS011;12011;47.422;15.018;2022-11-15T13:39:24;2.72;;;2.71;;
23668;SDS011;12011;47.422;15.018;2022-11-15T13:42:20;2.72;;;2.72;;
23668;SDS011;12011;47.422;15.018;2022-11-15T13:45:12;2.66;;;2.66;;
23668;SDS011;12011;47.422;15.018;2022-11-15T13:48:05;2.76;;;2.76;;
23668;SDS011;12011;47.422;15.018;2022-11-15T13:50:57;3.05;;;3.03;;
23668;SDS011;12011;47.422;15.018;2022-11-15T13:53:48;2.93;;;2.93;;
23668;SDS011;12011;47.422;15.018;2022-11-15T13:56:45;2.98;;;2.98;;
23668;SDS011;12011;47.422;15.018;2022-11-15T13:59:47;3.02;;;3.02;;
23668;SDS011;12011;47.422;15.018;2022-11-15T14:02:40;2.59;;;2.59;;
23668;SDS011;12011;47.422;15.018;2022-11-15T14:05:35;3.19;;;3.15;;
23668;SDS011;12011;47.422;15.018;2022-11-15T14:08:25;2.75;;;2.74;;
23668;SDS011;12011;47.422;15.018;2022-11-15T14:11:15;2.84;;;2.80;;
23668;SDS011;12011;47.422;15.018;2022-11-15T14:14:12;3.05;;;3.03;;
23668;SDS011;12011;47.422;15.018;2022-11-15T14:17:18;2.68;;;2.68;;
23668;SDS011;12011;47.422;15.018;2022-11-15T14:20:24;2.86;;;2.85;;
23668;SDS011;12011;47.422;15.018;2022-11-15T14:23:19;2.85;;;2.85;;
23668;SDS011;12011;47.422;15.018;2022-11-15T14:26:28;2.97;;;2.96;;
23668;SDS011;12011;47.422;15.018;2022-11-15T14:29:24;2.81;;;2.80;;
23668;SDS011;12011;47.422;15.018;2022-11-15T14:32:20;2.85;;;2.85;;
23668;SDS011;12011;47.422;15.018;2022-11-15T14:35:14;2.85;;;2.81;;
23668;SDS011;12011;47.422;15.018;2022-11-15T14:38:09;3.13;;;3.11;;
23668;SDS011;12011;47.422;15.018;2022-11-15T14:40:59;3.04;;;3.04;;
23668;SDS011;12011;47.422;15.018;2022-11-15T14:43:49;2.78;;;2.78;;
23668;SDS011;12011;47.422;15.018;2022-11-15T14:46:40;2.60;;;2.58;;
23668;SDS011;12011;47.422;15.018;2022-11-15T14:49:33;2.80;;;2.77;;
23668;SDS011;12011;47.422;15.018;2022-11-15T14:52:23;2.98;;;2.95;;
23668;SDS011;12011;47.422;15.018;2022-11-15T14:55:20;3.34;;;3.32;;
23668;SDS011;12011;47.422;15.018;2022-11-15T14:58:14;2.97;;;2.97;;
23668;SDS011;12011;47.422;15.018;2022-11-15T15:01:09;3.17;;;3.16;;
23668;SDS011;12011;47.422;15.018;2022-11-15T15:04:05;3.38;;;3.34;;
23668;SDS011;12011;47.422;15.018;2022-11-15T15:06:57;2.91;;;2.88;;
23668;SDS011;12011;47.422;15.018;2022-11-15T15:09:47;3.15;;;3.10;;
23668;SDS011;12011;47.422;15.018;2022-11-15T15:12:37;3.13;;;3.11;;
23668;SDS011;12011;47.422;15.018;2022-11-15T15:15:31;3.41;;;3.39;;
23668;SDS011;12011;47.422;15.018;2022-11-15T15:18:23;3.50;;;3.46;;
23668;SDS011;12011;47.422;15.018;2022-11-15T15:21:17;3.74;;;3.71;;
23668;SDS011;12011;47.422;15.018;2022-11-15T15:24:14;3.98;;;3.94;;
23668;SDS011;12011;47.422;15.018;2022-11-15T15:27:04;4.29;;;4.22;;
23668;SDS011;12011;47.422;15.018;2022-11-15T15:29:54;4.03;;;3.98;;
23668;SDS011;12011;47.422;15.018;2022-11-15T15:32:43;4.10;;;4.05;;
23668;SDS011;12011;47.422;15.018;2022-11-15T15:35:34;3.63;;;3.59;;
23668;SDS011;12011;47.422;15.018;2022-11-15T15:38:24;4.02;;;3.99;;
23668;SDS011;12011;47.422;15.018;2022-11-15T15:41:17;4.84;;;4.79;;
23668;SDS011;12011;47.422;15.018;2022-11-15T15:44:07;5.32;;;5.30;;
23668;SDS011;12011;47.422;15.018;2022-11-15T15:46:57;4.94;;;4.93;;
23668;SDS011;12011;47.422;15.018;2022-11-15T15:49:47;4.79;;;4.78;;
23668;SDS011;12011;47.422;15.018;2022-11-15T15:52:38;5.08;;;5.03;;
23668;SDS011;12011;47.422;15.018;2022-11-15T15:55:28;5.15;;;5.10;;
23668;SDS011;12011;47.422;15.018;2022-11-15T15:58:23;5.35;;;5.30;;
23668;SDS011;12011;47.422;15.018;2022-11-15T16:01:13;4.31;;;4.29;;
23668;SDS011;12011;47.422;15.018;2022-11-15T16:04:02;4.78;;;4.75;;
23668;SDS011;12011;47.422;15.018;2022-11-15T16:06:52;4.96;;;4.93;;
23668;SDS011;12011;47.422;15.018;2022-11-15T16:09:49;5.06;;;5.03;;
23668;SDS011;12011;47.422;15.018;2022-11-15T16:12:50;4.82;;;4.79;;
23668;SDS011;12011;47.422;15.018;2022-11-15T16:15:44;5.12;;;5.06;;
23668;SDS011;12011;47.422;15.018;2022-11-15T16:18:41;5.41;;;5.34;;
23668;SDS011;12011;47.422;15.018;2022-11-15T16:21:30;5.06;;;4.99;;
23668;SDS011;12011;47.422;15.018;2022-11-15T16:24:20;4.77;;;4.71;;
23668;SDS011;12011;47.422;15.018;2022-11-15T16:27:11;4.98;;;4.90;;
23668;SDS011;12011;47.422;15.018;2022-11-15T16:30:07;4.84;;;4.78;;
23668;SDS011;12011;47.422;15.018;2022-11-15T16:33:06;4.85;;;4.79;;
23668;SDS011;12011;47.422;15.018;2022-11-15T16:35:56;5.24;;;5.18;;
23668;SDS011;12011;47.422;15.018;2022-11-15T16:38:46;5.69;;;5.62;;
23668;SDS011;12011;47.422;15.018;2022-11-15T16:41:36;6.46;;;6.37;;
23668;SDS011;12011;47.422;15.018;2022-11-15T16:44:28;7.54;;;7.41;;
23668;SDS011;12011;47.422;15.018;2022-11-15T16:47:18;6.56;;;6.47;;
23668;SDS011;12011;47.422;15.018;2022-11-15T16:50:12;5.61;;;5.56;;
23668;SDS011;12011;47.422;15.018;2022-11-15T16:53:10;5.31;;;5.28;;
23668;SDS011;12011;47.422;15.018;2022-11-15T16:56:00;5.28;;;5.25;;
23668;SDS011;12011;47.422;15.018;2022-11-15T16:58:51;5.82;;;5.76;;
23668;SDS011;12011;47.422;15.018;2022-11-15T17:01:43;6.33;;;6.22;;
23668;SDS011;12011;47.422;15.018;2022-11-15T17:04:38;6.70;;;6.59;;
23668;SDS011;12011;47.422;15.018;2022-11-15T17:07:30;7.02;;;6.92;;
23668;SDS011;12011;47.422;15.018;2022-11-15T17:10:21;6.91;;;6.78;;
23668;SDS011;12011;47.422;15.018;2022-11-15T17:13:13;6.97;;;6.83;;
23668;SDS011;12011;47.422;15.018;2022-11-15T17:16:04;6.73;;;6.60;;
23668;SDS011;12011;47.422;15.018;2022-11-15T17:18:56;6.64;;;6.50;;
23668;SDS011;12011;47.422;15.018;2022-11-15T17:21:46;6.80;;;6.54;;
23668;SDS011;12011;47.422;15.018;2022-11-15T17:24:39;6.73;;;6.59;;
23668;SDS011;12011;47.422;15.018;2022-11-15T17:27:29;6.43;;;6.33;;
23668;SDS011;12011;47.422;15.018;2022-11-15T17:30:21;8.06;;;7.93;;
23668;SDS011;12011;47.422;15.018;2022-11-15T17:33:11;7.76;;;7.60;;
23668;SDS011;12011;47.422;15.018;2022-11-15T17:36:02;6.45;;;6.29;;
23668;SDS011;12011;47.422;15.018;2022-11-15T17:38:55;8.79;;;8.65;;
23668;SDS011;12011;47.422;15.018;2022-11-15T17:41:47;8.08;;;7.99;;
23668;SDS011;12011;47.422;15.018;2022-11-15T17:44:38;8.57;;;8.48;;
23668;SDS011;12011;47.422;15.018;2022-11-15T17:47:27;9.08;;;8.98;;
23668;SDS011;12011;47.422;15.018;2022-11-15T17:50:17;8.76;;;8.68;;
23668;SDS011;12011;47.422;15.018;2022-11-15T17:53:07;10.09;;;9.94;;
23668;SDS011;12011;47.422;15.018;2022-11-15T17:55:59;9.65;;;9.55;;
23668;SDS011;12011;47.422;15.018;2022-11-15T17:58:55;8.86;;;8.75;;
23668;SDS011;12011;47.422;15.018;2022-11-15T18:01:46;10.50;;;10.36;;
23668;SDS011;12011;47.422;15.018;2022-11-15T18:04:40;11.33;;;11.25;;
23668;SDS011;12011;47.422;15.018;2022-11-15T18:07:29;9.78;;;9.58;;
23668;SDS011;12011;47.422;15.018;2022-11-15T18:10:19;9.15;;;9.03;;
23668;SDS011;12011;47.422;15.018;2022-11-15T18:13:09;11.06;;;10.98;;
23668;SDS011;12011;47.422;15.018;2022-11-15T18:16:03;11.32;;;11.24;;
23668;SDS011;12011;47.422;15.018;2022-11-15T18:18:56;10.38;;;10.20;;
23668;SDS011;12011;47.422;15.018;2022-11-15T18:21:47;10.66;;;10.48;;
23668;SDS011;12011;47.422;15.018;2022-11-15T18:24:49;12.64;;;12.42;;
23668;SDS011;12011;47.422;15.018;2022-11-15T18:27:40;11.46;;;11.24;;
23668;SDS011;12011;47.422;15.018;2022-11-15T18:30:30;10.45;;;10.28;;
23668;SDS011;12011;47.422;15.018;2022-11-15T18:33:23;9.64;;;9.46;;
23668;SDS011;12011;47.422;15.018;2022-11-15T18:36:16;8.79;;;8.71;;
23668;SDS011;12011;47.422;15.018;2022-11-15T18:39:11;8.13;;;8.07;;